sensor_id;sensor_type;location;lat;lon;timestamp;P1;P2;P0
65360;PMS5003;51958;55.018;73.536;2022-08-04T00:00:43;3.00;3.00;1.00
65360;PMS5003;51958;55.018;73.536;2022-08-04T00:03:16;6.00;4.50;1.00
65360;PMS5003;51958;55.018;73.536;2022-08-04T00:11:00;4.00;4.00;1.00
65360;PMS5003;51958;55.018;73.536;2022-08-04T00:13:27;4.00;4.00;0.00
65360;PMS5003;51958;55.018;73.536;2022-08-04T00:16:04;3.00;3.00;0.00
65360;PMS5003;51958;55.018;73.536;2022-08-04T00:18:33;4.00;4.00;0.00
65360;PMS5003;51958;55.018;73.536;2022-08-04T00:21:02;5.00;4.50;0.00
65360;PMS5003;51958;55.018;73.536;2022-08-04T00:23:38;2.25;2.25;0.00
65360;PMS5003;51958;55.018;73.536;2022-08-04T00:26:05;3.00;3.00;0.00
65360;PMS5003;51958;55.018;73.536;2022-08-04T00:28:37;1.25;1.00;0.00
65360;PMS5003;51958;55.018;73.536;2022-08-04T00:31:03;4.00;3.00;0.00
65360;PMS5003;51958;55.018;73.536;2022-08-04T00:33:46;2.00;2.00;0.00
65360;PMS5003;51958;55.018;73.536;2022-08-04T00:36:15;1.00;1.00;0.00
65360;PMS5003;51958;55.018;73.536;2022-08-04T00:38:42;1.00;1.00;0.00
65360;PMS5003;51958;55.018;73.536;2022-08-04T00:41:17;3.00;1.00;0.00
65360;PMS5003;51958;55.018;73.536;2022-08-04T00:59:16;0.00;0.00;0.00
65360;PMS5003;51958;55.018;73.536;2022-08-04T01:01:59;0.00;0.00;0.00
65360;PMS5003;51958;55.018;73.536;2022-08-04T01:05:05;0.00;0.00;0.00
65360;PMS5003;51958;55.018;73.536;2022-08-04T01:07:29;0.00;0.00;0.00
65360;PMS5003;51958;55.018;73.536;2022-08-04T01:10:47;0.00;0.00;0.00
65360;PMS5003;51958;55.018;73.536;2022-08-04T01:18:13;0.00;0.00;0.00
65360;PMS5003;51958;55.018;73.536;2022-08-04T01:21:03;0.00;0.00;0.00
65360;PMS5003;51958;55.018;73.536;2022-08-04T01:23:37;0.00;0.00;0.00
65360;PMS5003;51958;55.018;73.536;2022-08-04T01:29:03;1.00;0.00;0.00
65360;PMS5003;51958;55.018;73.536;2022-08-04T01:34:05;0.50;0.00;0.00
65360;PMS5003;51958;55.018;73.536;2022-08-04T01:36:33;0.00;0.00;0.00
65360;PMS5003;51958;55.018;73.536;2022-08-04T01:39:15;0.00;0.00;0.00
65360;PMS5003;51958;55.018;73.536;2022-08-04T01:42:09;0.00;0.00;0.00
65360;PMS5003;51958;55.018;73.536;2022-08-04T01:44:35;0.00;0.00;0.00
65360;PMS5003;51958;55.018;73.536;2022-08-04T01:47:02;0.00;0.00;0.00
65360;PMS5003;51958;55.018;73.536;2022-08-04T01:49:37;0.00;0.00;0.00
65360;PMS5003;51958;55.018;73.536;2022-08-04T01:52:04;0.00;0.00;0.00
65360;PMS5003;51958;55.018;73.536;2022-08-04T01:54:30;0.00;0.00;0.00
65360;PMS5003;51958;55.018;73.536;2022-08-04T01:57:03;0.00;0.00;0.00
65360;PMS5003;51958;55.018;73.536;2022-08-04T01:59:34;0.00;0.00;0.00
65360;PMS5003;51958;55.018;73.536;2022-08-04T02:02:01;0.50;0.00;0.00
65360;PMS5003;51958;55.018;73.536;2022-08-04T02:04:31;0.00;0.00;0.00
65360;PMS5003;51958;55.018;73.536;2022-08-04T02:14:44;0.00;0.00;0.00
65360;PMS5003;51958;55.018;73.536;2022-08-04T02:17:15;0.00;0.00;0.00
65360;PMS5003;51958;55.018;73.536;2022-08-04T02:22:15;2.00;2.00;0.00
65360;PMS5003;51958;55.018;73.536;2022-08-04T02:24:45;3.00;3.00;0.00
65360;PMS5003;51958;55.018;73.536;2022-08-04T02:27:13;7.50;7.00;0.00
65360;PMS5003;51958;55.018;73.536;2022-08-04T02:29:42;9.00;8.00;4.00
65360;PMS5003;51958;55.018;73.536;2022-08-04T02:32:24;14.00;13.00;7.00
65360;PMS5003;51958;55.018;73.536;2022-08-04T02:37:16;22.00;19.00;8.00
65360;PMS5003;51958;55.018;73.536;2022-08-04T02:39:52;19.25;18.00;6.25
65360;PMS5003;51958;55.018;73.536;2022-08-04T02:42:18;17.00;14.00;5.75
65360;PMS5003;51958;55.018;73.536;2022-08-04T02:44:48;17.25;14.75;6.50
65360;PMS5003;51958;55.018;73.536;2022-08-04T02:47:13;15.00;12.00;6.00
65360;PMS5003;51958;55.018;73.536;2022-08-04T02:49:41;13.25;9.50;5.00
65360;PMS5003;51958;55.018;73.536;2022-08-04T02:52:08;10.50;6.50;2.25
65360;PMS5003;51958;55.018;73.536;2022-08-04T02:54:37;8.00;5.50;2.00
65360;PMS5003;51958;55.018;73.536;2022-08-04T02:57:06;9.00;5.00;2.00
65360;PMS5003;51958;55.018;73.536;2022-08-04T02:59:41;6.50;5.00;2.00
65360;PMS5003;51958;55.018;73.536;2022-08-04T03:02:08;6.75;5.00;1.75
65360;PMS5003;51958;55.018;73.536;2022-08-04T03:04:39;5.00;5.00;2.25
65360;PMS5003;51958;55.018;73.536;2022-08-04T03:33:23;0.00;0.00;0.00
65360;PMS5003;51958;55.018;73.536;2022-08-04T03:43:53;0.00;0.00;0.00
65360;PMS5003;51958;55.018;73.536;2022-08-04T03:59:51;0.00;0.00;0.00
65360;PMS5003;51958;55.018;73.536;2022-08-04T04:04:46;0.00;0.00;0.00
65360;PMS5003;51958;55.018;73.536;2022-08-04T04:12:49;0.00;0.00;0.00
65360;PMS5003;51958;55.018;73.536;2022-08-04T04:18:04;0.00;0.00;0.00
65360;PMS5003;51958;55.018;73.536;2022-08-04T04:23:30;0.00;0.00;0.00
65360;PMS5003;51958;55.018;73.536;2022-08-04T04:26:19;0.00;0.00;0.00
65360;PMS5003;51958;55.018;73.536;2022-08-04T04:39:14;0.00;0.00;0.00
65360;PMS5003;51958;55.018;73.536;2022-08-04T04:47:21;0.00;0.00;0.00
65360;PMS5003;51958;55.018;73.536;2022-08-04T04:49:50;0.00;0.00;0.00
65360;PMS5003;51958;55.018;73.536;2022-08-04T04:52:39;0.00;0.00;0.00
65360;PMS5003;51958;55.018;73.536;2022-08-04T04:57:33;0.00;0.00;0.00
65360;PMS5003;51958;55.018;73.536;2022-08-04T05:00:04;0.00;0.00;0.00
65360;PMS5003;51958;55.018;73.536;2022-08-04T05:07:39;0.00;0.00;0.00
65360;PMS5003;51958;55.018;73.536;2022-08-04T05:15:45;1.00;0.00;0.00
65360;PMS5003;51958;55.018;73.536;2022-08-04T05:18:23;0.25;0.00;0.00
65360;PMS5003;51958;55.018;73.536;2022-08-04T05:21:18;0.00;0.00;0.00
65360;PMS5003;51958;55.018;73.536;2022-08-04T05:23:52;0.00;0.00;0.00
65360;PMS5003;51958;55.018;73.536;2022-08-04T05:26:22;0.00;0.00;0.00
65360;PMS5003;51958;55.018;73.536;2022-08-04T05:28:56;0.00;0.00;0.00
65360;PMS5003;51958;55.018;73.536;2022-08-04T05:31:30;0.00;0.00;0.00
65360;PMS5003;51958;55.018;73.536;2022-08-04T05:34:04;0.00;0.00;0.00
65360;PMS5003;51958;55.018;73.536;2022-08-04T05:36:36;0.00;0.00;0.00
65360;PMS5003;51958;55.018;73.536;2022-08-04T05:39:02;1.00;0.00;0.00
65360;PMS5003;51958;55.018;73.536;2022-08-04T05:41:29;1.00;0.00;0.00
65360;PMS5003;51958;55.018;73.536;2022-08-04T05:44:06;0.00;0.00;0.00
65360;PMS5003;51958;55.018;73.536;2022-08-04T05:46:43;0.00;0.00;0.00
65360;PMS5003;51958;55.018;73.536;2022-08-04T05:49:10;0.00;0.00;0.00
65360;PMS5003;51958;55.018;73.536;2022-08-04T05:51:36;0.00;0.00;0.00
65360;PMS5003;51958;55.018;73.536;2022-08-04T05:54:02;0.00;0.00;0.00
65360;PMS5003;51958;55.018;73.536;2022-08-04T05:56:30;0.00;0.00;0.00
65360;PMS5003;51958;55.018;73.536;2022-08-04T05:58:58;0.00;0.00;0.00
65360;PMS5003;51958;55.018;73.536;2022-08-04T06:01:24;0.00;0.00;0.00
65360;PMS5003;51958;55.018;73.536;2022-08-04T06:03:51;0.00;0.00;0.00
65360;PMS5003;51958;55.018;73.536;2022-08-04T06:06:18;0.00;0.00;0.00
65360;PMS5003;51958;55.018;73.536;2022-08-04T06:08:45;0.00;0.00;0.00
65360;PMS5003;51958;55.018;73.536;2022-08-04T06:11:11;0.00;0.00;0.00
65360;PMS5003;51958;55.018;73.536;2022-08-04T06:13:53;0.00;0.00;0.00
65360;PMS5003;51958;55.018;73.536;2022-08-04T06:16:22;0.00;0.00;0.00
65360;PMS5003;51958;55.018;73.536;2022-08-04T06:18:49;0.00;0.00;0.00
65360;PMS5003;51958;55.018;73.536;2022-08-04T06:21:20;0.00;0.00;0.00
65360;PMS5003;51958;55.018;73.536;2022-08-04T06:23:57;0.00;0.00;0.00
65360;PMS5003;51958;55.018;73.536;2022-08-04T06:26:24;0.00;0.00;0.00
65360;PMS5003;51958;55.018;73.536;2022-08-04T06:28:57;0.00;0.00;0.00
65360;PMS5003;51958;55.018;73.536;2022-08-04T06:31:23;0.00;0.00;0.00
65360;PMS5003;51958;55.018;73.536;2022-08-04T06:34:23;0.00;0.00;0.00
65360;PMS5003;51958;55.018;73.536;2022-08-04T06:36:50;0.00;0.00;0.00
65360;PMS5003;51958;55.018;73.536;2022-08-04T06:39:16;0.00;0.00;0.00
65360;PMS5003;51958;55.018;73.536;2022-08-04T06:41:52;0.00;0.00;0.00
65360;PMS5003;51958;55.018;73.536;2022-08-04T06:44:24;0.00;0.00;0.00
65360;PMS5003;51958;55.018;73.536;2022-08-04T06:46:50;0.00;0.00;0.00
65360;PMS5003;51958;55.018;73.536;2022-08-04T06:49:17;0.00;0.00;0.00
65360;PMS5003;51958;55.018;73.536;2022-08-04T06:51:53;0.00;0.00;0.00
65360;PMS5003;51958;55.018;73.536;2022-08-04T06:54:31;0.00;0.00;0.00
65360;PMS5003;51958;55.018;73.536;2022-08-04T06:56:57;0.00;0.00;0.00
65360;PMS5003;51958;55.018;73.536;2022-08-04T06:59:25;0.00;0.00;0.00
65360;PMS5003;51958;55.018;73.536;2022-08-04T07:01:52;0.00;0.00;0.00
65360;PMS5003;51958;55.018;73.536;2022-08-04T07:04:18;0.00;0.00;0.00
65360;PMS5003;51958;55.018;73.536;2022-08-04T07:06:44;0.00;0.00;0.00
65360;PMS5003;51958;55.018;73.536;2022-08-04T07:09:17;1.00;1.00;0.00
65360;PMS5003;51958;55.018;73.536;2022-08-04T07:11:43;0.75;0.00;0.00
65360;PMS5003;51958;55.018;73.536;2022-08-04T07:14:09;0.00;0.00;0.00
65360;PMS5003;51958;55.018;73.536;2022-08-04T07:16:40;0.00;0.00;0.00
65360;PMS5003;51958;55.018;73.536;2022-08-04T07:19:06;0.00;0.00;0.00
65360;PMS5003;51958;55.018;73.536;2022-08-04T07:21:32;0.00;0.00;0.00
65360;PMS5003;51958;55.018;73.536;2022-08-04T07:23:59;0.00;0.00;0.00
65360;PMS5003;51958;55.018;73.536;2022-08-04T07:26:26;0.00;0.00;0.00
65360;PMS5003;51958;55.018;73.536;2022-08-04T07:28:56;0.00;0.00;0.00
65360;PMS5003;51958;55.018;73.536;2022-08-04T07:31:23;0.00;0.00;0.00
65360;PMS5003;51958;55.018;73.536;2022-08-04T07:33:49;0.00;0.00;0.00
65360;PMS5003;51958;55.018;73.536;2022-08-04T07:36:25;0.00;0.00;0.00
65360;PMS5003;51958;55.018;73.536;2022-08-04T07:38:51;0.00;0.00;0.00
65360;PMS5003;51958;55.018;73.536;2022-08-04T07:41:23;0.00;0.00;0.00
65360;PMS5003;51958;55.018;73.536;2022-08-04T07:43:55;0.00;0.00;0.00
65360;PMS5003;51958;55.018;73.536;2022-08-04T07:46:21;0.00;0.00;0.00
65360;PMS5003;51958;55.018;73.536;2022-08-04T07:48:47;0.00;0.00;0.00
65360;PMS5003;51958;55.018;73.536;2022-08-04T07:51:22;0.00;0.00;0.00
65360;PMS5003;51958;55.018;73.536;2022-08-04T07:53:54;0.00;0.00;0.00
65360;PMS5003;51958;55.018;73.536;2022-08-04T07:56:20;0.00;0.00;0.00
65360;PMS5003;51958;55.018;73.536;2022-08-04T07:58:46;0.00;0.00;0.00
65360;PMS5003;51958;55.018;73.536;2022-08-04T08:01:12;0.00;0.00;0.00
65360;PMS5003;51958;55.018;73.536;2022-08-04T08:03:38;0.00;0.00;0.00
65360;PMS5003;51958;55.018;73.536;2022-08-04T08:06:04;0.00;0.00;0.00
65360;PMS5003;51958;55.018;73.536;2022-08-04T08:08:38;0.00;0.00;0.00
65360;PMS5003;51958;55.018;73.536;2022-08-04T08:11:09;0.00;0.00;0.00
65360;PMS5003;51958;55.018;73.536;2022-08-04T08:13:45;0.00;0.00;0.00
65360;PMS5003;51958;55.018;73.536;2022-08-04T08:16:11;0.00;0.00;0.00
65360;PMS5003;51958;55.018;73.536;2022-08-04T08:18:37;0.00;0.00;0.00
65360;PMS5003;51958;55.018;73.536;2022-08-04T08:21:05;0.00;0.00;0.00
65360;PMS5003;51958;55.018;73.536;2022-08-04T08:39:06;1.00;0.00;0.00
65360;PMS5003;51958;55.018;73.536;2022-08-04T09:09:35;0.00;0.00;0.00
65360;PMS5003;51958;55.018;73.536;2022-08-04T09:13:32;0.00;0.00;0.00
65360;PMS5003;51958;55.018;73.536;2022-08-04T09:24:05;0.00;0.00;0.00
65360;PMS5003;51958;55.018;73.536;2022-08-04T09:27:02;0.00;0.00;0.00
65360;PMS5003;51958;55.018;73.536;2022-08-04T09:29:42;0.00;0.00;0.00
65360;PMS5003;51958;55.018;73.536;2022-08-04T09:32:26;0.00;0.00;0.00
65360;PMS5003;51958;55.018;73.536;2022-08-04T09:40:02;0.00;0.00;0.00
65360;PMS5003;51958;55.018;73.536;2022-08-04T09:42:52;0.00;0.00;0.00
65360;PMS5003;51958;55.018;73.536;2022-08-04T09:48:16;0.00;0.00;0.00
65360;PMS5003;51958;55.018;73.536;2022-08-04T09:50:44;0.00;0.00;0.00
65360;PMS5003;51958;55.018;73.536;2022-08-04T10:05:26;0.00;0.00;0.00
65360;PMS5003;51958;55.018;73.536;2022-08-04T10:09:27;0.00;0.00;0.00
65360;PMS5003;51958;55.018;73.536;2022-08-04T10:15:56;0.00;0.00;0.00
65360;PMS5003;51958;55.018;73.536;2022-08-04T10:18:39;0.00;0.00;0.00
65360;PMS5003;51958;55.018;73.536;2022-08-04T10:23:39;0.00;0.00;0.00
65360;PMS5003;51958;55.018;73.536;2022-08-04T10:28:48;0.00;0.00;0.00
65360;PMS5003;51958;55.018;73.536;2022-08-04T10:31:23;0.00;0.00;0.00
65360;PMS5003;51958;55.018;73.536;2022-08-04T10:34:11;0.00;0.00;0.00
65360;PMS5003;51958;55.018;73.536;2022-08-04T10:36:39;0.00;0.00;0.00
65360;PMS5003;51958;55.018;73.536;2022-08-04T10:39:10;0.00;0.00;0.00
65360;PMS5003;51958;55.018;73.536;2022-08-04T10:41:55;0.00;0.00;0.00
65360;PMS5003;51958;55.018;73.536;2022-08-04T10:45:44;0.00;0.00;0.00
65360;PMS5003;51958;55.018;73.536;2022-08-04T10:58:25;0.00;0.00;0.00
65360;PMS5003;51958;55.018;73.536;2022-08-04T11:00:55;0.00;0.00;0.00
65360;PMS5003;51958;55.018;73.536;2022-08-04T11:03:23;0.00;0.00;0.00
65360;PMS5003;51958;55.018;73.536;2022-08-04T11:05:51;0.00;0.00;0.00
65360;PMS5003;51958;55.018;73.536;2022-08-04T11:08:31;0.00;0.00;0.00
65360;PMS5003;51958;55.018;73.536;2022-08-04T11:11:00;0.00;0.00;0.00
65360;PMS5003;51958;55.018;73.536;2022-08-04T11:23:45;4.00;3.00;0.00
65360;PMS5003;51958;55.018;73.536;2022-08-04T11:26:28;3.75;3.25;0.00
65360;PMS5003;51958;55.018;73.536;2022-08-04T11:46:51;0.00;0.00;0.00
65360;PMS5003;51958;55.018;73.536;2022-08-04T11:49:29;0.00;0.00;0.00
65360;PMS5003;51958;55.018;73.536;2022-08-04T11:51:58;0.00;0.00;0.00
65360;PMS5003;51958;55.018;73.536;2022-08-04T11:54:24;0.00;0.00;0.00
65360;PMS5003;51958;55.018;73.536;2022-08-04T11:56:57;0.00;0.00;0.00
65360;PMS5003;51958;55.018;73.536;2022-08-04T11:59:23;0.00;0.00;0.00
65360;PMS5003;51958;55.018;73.536;2022-08-04T12:08:53;0.00;0.00;0.00
65360;PMS5003;51958;55.018;73.536;2022-08-04T12:11:34;0.00;0.00;0.00
65360;PMS5003;51958;55.018;73.536;2022-08-04T12:18:20;3.00;3.00;0.75
65360;PMS5003;51958;55.018;73.536;2022-08-04T12:20:54;1.00;1.00;0.00
65360;PMS5003;51958;55.018;73.536;2022-08-04T12:23:40;1.25;0.50;0.00
65360;PMS5003;51958;55.018;73.536;2022-08-04T12:26:24;0.00;0.00;0.00
65360;PMS5003;51958;55.018;73.536;2022-08-04T12:28:52;0.00;0.00;0.00
65360;PMS5003;51958;55.018;73.536;2022-08-04T12:31:27;0.00;0.00;0.00
65360;PMS5003;51958;55.018;73.536;2022-08-04T12:33:57;0.00;0.00;0.00
65360;PMS5003;51958;55.018;73.536;2022-08-04T12:36:32;0.00;0.00;0.00
65360;PMS5003;51958;55.018;73.536;2022-08-04T12:39:08;0.00;0.00;0.00
65360;PMS5003;51958;55.018;73.536;2022-08-04T12:41:37;0.25;0.00;0.00
65360;PMS5003;51958;55.018;73.536;2022-08-04T12:44:11;0.00;0.00;0.00
65360;PMS5003;51958;55.018;73.536;2022-08-04T12:46:48;0.00;0.00;0.00
65360;PMS5003;51958;55.018;73.536;2022-08-04T12:49:14;0.00;0.00;0.00
65360;PMS5003;51958;55.018;73.536;2022-08-04T12:54:32;0.00;0.00;0.00
65360;PMS5003;51958;55.018;73.536;2022-08-04T12:57:15;0.00;0.00;0.00
65360;PMS5003;51958;55.018;73.536;2022-08-04T12:59:42;1.00;0.00;0.00
65360;PMS5003;51958;55.018;73.536;2022-08-04T13:02:32;0.00;0.00;0.00
65360;PMS5003;51958;55.018;73.536;2022-08-04T13:09:06;0.00;0.00;0.00
65360;PMS5003;51958;55.018;73.536;2022-08-04T13:11:58;0.00;0.00;0.00
65360;PMS5003;51958;55.018;73.536;2022-08-04T13:14:27;0.00;0.00;0.00
65360;PMS5003;51958;55.018;73.536;2022-08-04T13:16:59;1.50;1.50;0.00
65360;PMS5003;51958;55.018;73.536;2022-08-04T13:19:25;1.00;1.00;0.00
65360;PMS5003;51958;55.018;73.536;2022-08-04T13:21:52;0.00;0.00;0.00
65360;PMS5003;51958;55.018;73.536;2022-08-04T13:24:19;0.50;0.00;0.00
65360;PMS5003;51958;55.018;73.536;2022-08-04T13:26:47;1.00;0.00;0.00
65360;PMS5003;51958;55.018;73.536;2022-08-04T13:29:36;0.00;0.00;0.00
65360;PMS5003;51958;55.018;73.536;2022-08-04T13:32:43;0.00;0.00;0.00
65360;PMS5003;51958;55.018;73.536;2022-08-04T13:35:09;0.00;0.00;0.00
65360;PMS5003;51958;55.018;73.536;2022-08-04T13:37:36;0.00;0.00;0.00
65360;PMS5003;51958;55.018;73.536;2022-08-04T13:40:04;0.00;0.00;0.00
65360;PMS5003;51958;55.018;73.536;2022-08-04T13:42:37;0.00;0.00;0.00
65360;PMS5003;51958;55.018;73.536;2022-08-04T13:45:13;1.00;0.00;0.00
65360;PMS5003;51958;55.018;73.536;2022-08-04T13:47:49;0.00;0.00;0.00
65360;PMS5003;51958;55.018;73.536;2022-08-04T13:50:18;1.00;1.00;0.00
65360;PMS5003;51958;55.018;73.536;2022-08-04T13:52:50;1.00;1.00;0.00
65360;PMS5003;51958;55.018;73.536;2022-08-04T13:55:19;3.00;2.00;0.00
65360;PMS5003;51958;55.018;73.536;2022-08-04T13:58:04;3.25;3.00;0.00
65360;PMS5003;51958;55.018;73.536;2022-08-04T14:00:40;4.75;4.75;1.50
65360;PMS5003;51958;55.018;73.536;2022-08-04T14:03:07;6.50;6.25;3.00
65360;PMS5003;51958;55.018;73.536;2022-08-04T14:05:33;5.00;5.00;3.00
65360;PMS5003;51958;55.018;73.536;2022-08-04T14:08:06;3.00;3.00;2.00
65360;PMS5003;51958;55.018;73.536;2022-08-04T14:10:51;4.75;3.00;1.00
65360;PMS5003;51958;55.018;73.536;2022-08-04T14:13:26;3.00;2.00;0.00
65360;PMS5003;51958;55.018;73.536;2022-08-04T14:15:53;4.00;4.00;0.00
65360;PMS5003;51958;55.018;73.536;2022-08-04T14:18:20;3.75;3.00;0.00
65360;PMS5003;51958;55.018;73.536;2022-08-04T14:20:58;4.50;3.00;0.00
65360;PMS5003;51958;55.018;73.536;2022-08-04T14:23:24;6.00;5.25;0.00
65360;PMS5003;51958;55.018;73.536;2022-08-04T14:25:51;8.75;7.00;4.00
65360;PMS5003;51958;55.018;73.536;2022-08-04T14:28:27;8.00;7.00;5.00
65360;PMS5003;51958;55.018;73.536;2022-08-04T14:31:08;5.00;4.00;2.00
65360;PMS5003;51958;55.018;73.536;2022-08-04T14:33:45;7.00;7.00;2.75
65360;PMS5003;51958;55.018;73.536;2022-08-04T14:36:21;4.00;4.00;2.00
65360;PMS5003;51958;55.018;73.536;2022-08-04T14:38:53;6.00;4.75;2.00
65360;PMS5003;51958;55.018;73.536;2022-08-04T14:41:21;6.00;5.00;3.00
65360;PMS5003;51958;55.018;73.536;2022-08-04T14:43:49;5.00;4.00;2.00
65360;PMS5003;51958;55.018;73.536;2022-08-04T14:46:16;10.50;9.75;5.50
65360;PMS5003;51958;55.018;73.536;2022-08-04T14:51:36;31.50;29.00;20.00
65360;PMS5003;51958;55.018;73.536;2022-08-04T14:54:02;25.75;24.50;17.50
65360;PMS5003;51958;55.018;73.536;2022-08-04T14:56:29;15.50;12.50;7.00
65360;PMS5003;51958;55.018;73.536;2022-08-04T14:59:10;13.00;9.00;5.00
65360;PMS5003;51958;55.018;73.536;2022-08-04T15:01:42;14.50;10.00;6.25
65360;PMS5003;51958;55.018;73.536;2022-08-04T15:04:09;14.00;10.00;5.75
65360;PMS5003;51958;55.018;73.536;2022-08-04T15:06:36;14.75;12.75;7.25
65360;PMS5003;51958;55.018;73.536;2022-08-04T15:09:07;16.00;15.00;7.00
65360;PMS5003;51958;55.018;73.536;2022-08-04T15:11:33;15.00;13.00;5.50
65360;PMS5003;51958;55.018;73.536;2022-08-04T15:14:04;12.50;9.00;3.00
65360;PMS5003;51958;55.018;73.536;2022-08-04T15:16:31;20.50;17.50;11.25
65360;PMS5003;51958;55.018;73.536;2022-08-04T15:18:57;18.25;17.50;8.50
65360;PMS5003;51958;55.018;73.536;2022-08-04T15:21:24;20.00;16.00;6.00
65360;PMS5003;51958;55.018;73.536;2022-08-04T15:23:52;21.00;16.25;7.75
65360;PMS5003;51958;55.018;73.536;2022-08-04T15:29:18;26.25;23.25;14.25
65360;PMS5003;51958;55.018;73.536;2022-08-04T15:31:55;21.50;20.00;13.00
65360;PMS5003;51958;55.018;73.536;2022-08-04T15:34:21;19.00;17.00;7.00
65360;PMS5003;51958;55.018;73.536;2022-08-04T15:36:52;17.00;16.00;7.00
65360;PMS5003;51958;55.018;73.536;2022-08-04T15:47:20;19.00;17.00;8.00
65360;PMS5003;51958;55.018;73.536;2022-08-04T15:50:00;22.00;18.25;10.00
65360;PMS5003;51958;55.018;73.536;2022-08-04T15:58:07;19.50;18.00;8.00
65360;PMS5003;51958;55.018;73.536;2022-08-04T16:03:39;22.00;20.75;10.00
65360;PMS5003;51958;55.018;73.536;2022-08-04T16:16:28;19.00;19.00;8.00
65360;PMS5003;51958;55.018;73.536;2022-08-04T16:18:54;21.00;19.50;9.25
65360;PMS5003;51958;55.018;73.536;2022-08-04T16:21:22;20.00;20.00;9.00
65360;PMS5003;51958;55.018;73.536;2022-08-04T16:34:47;16.00;14.00;8.75
65360;PMS5003;51958;55.018;73.536;2022-08-04T16:37:15;18.00;16.00;7.00
65360;PMS5003;51958;55.018;73.536;2022-08-04T16:39:46;17.50;16.00;7.50
65360;PMS5003;51958;55.018;73.536;2022-08-04T16:42:28;18.00;14.00;7.00
65360;PMS5003;51958;55.018;73.536;2022-08-04T16:50:18;9.75;8.00;4.00
65360;PMS5003;51958;55.018;73.536;2022-08-04T16:52:49;9.00;7.50;4.00
65360;PMS5003;51958;55.018;73.536;2022-08-04T16:55:16;8.50;7.75;5.75
65360;PMS5003;51958;55.018;73.536;2022-08-04T16:57:46;11.25;9.50;5.50
65360;PMS5003;51958;55.018;73.536;2022-08-04T17:00:13;16.75;15.50;6.75
65360;PMS5003;51958;55.018;73.536;2022-08-04T17:02:43;22.25;20.25;11.00
65360;PMS5003;51958;55.018;73.536;2022-08-04T17:05:20;23.00;20.50;11.25
65360;PMS5003;51958;55.018;73.536;2022-08-04T17:07:49;21.50;20.00;10.00
65360;PMS5003;51958;55.018;73.536;2022-08-04T17:10:15;23.00;21.50;11.75
65360;PMS5003;51958;55.018;73.536;2022-08-04T17:12:41;24.33;22.00;11.33
65360;PMS5003;51958;55.018;73.536;2022-08-04T17:15:22;23.33;20.33;10.00
65360;PMS5003;51958;55.018;73.536;2022-08-04T17:17:48;17.00;15.00;6.00
65360;PMS5003;51958;55.018;73.536;2022-08-04T17:20:14;14.00;11.00;5.33
65360;PMS5003;51958;55.018;73.536;2022-08-04T17:22:40;8.50;7.75;3.00
65360;PMS5003;51958;55.018;73.536;2022-08-04T17:25:08;4.00;4.00;2.00
65360;PMS5003;51958;55.018;73.536;2022-08-04T17:27:37;7.00;5.75;3.00
65360;PMS5003;51958;55.018;73.536;2022-08-04T17:30:34;7.00;6.00;2.50
65360;PMS5003;51958;55.018;73.536;2022-08-04T17:32:58;8.50;8.50;3.75
65360;PMS5003;51958;55.018;73.536;2022-08-04T17:35:24;11.00;10.33;4.33
65360;PMS5003;51958;55.018;73.536;2022-08-04T17:37:50;15.00;10.67;6.67
65360;PMS5003;51958;55.018;73.536;2022-08-04T17:40:16;17.00;14.00;7.50
65360;PMS5003;51958;55.018;73.536;2022-08-04T17:42:46;17.00;13.00;7.00
65360;PMS5003;51958;55.018;73.536;2022-08-04T17:45:15;16.67;13.67;6.00
65360;PMS5003;51958;55.018;73.536;2022-08-04T17:47:51;17.75;14.00;6.25
65360;PMS5003;51958;55.018;73.536;2022-08-04T17:50:26;15.75;13.50;6.75
65360;PMS5003;51958;55.018;73.536;2022-08-04T17:53:04;17.50;16.00;7.00
65360;PMS5003;51958;55.018;73.536;2022-08-04T17:55:41;19.25;17.00;8.00
65360;PMS5003;51958;55.018;73.536;2022-08-04T17:58:11;18.75;17.00;6.75
65360;PMS5003;51958;55.018;73.536;2022-08-04T18:00:36;19.75;17.00;7.00
65360;PMS5003;51958;55.018;73.536;2022-08-04T18:03:02;18.00;16.00;6.00
65360;PMS5003;51958;55.018;73.536;2022-08-04T18:05:28;18.00;16.00;9.00
65360;PMS5003;51958;55.018;73.536;2022-08-04T18:07:54;19.00;17.75;8.00
65360;PMS5003;51958;55.018;73.536;2022-08-04T18:10:20;17.00;16.00;6.00
65360;PMS5003;51958;55.018;73.536;2022-08-04T18:13:04;14.00;12.00;5.50
65360;PMS5003;51958;55.018;73.536;2022-08-04T18:15:30;12.75;12.00;7.00
65360;PMS5003;51958;55.018;73.536;2022-08-04T18:18:16;13.00;12.00;6.75
65360;PMS5003;51958;55.018;73.536;2022-08-04T18:20:42;13.75;13.00;6.00
65360;PMS5003;51958;55.018;73.536;2022-08-04T18:23:11;14.00;13.00;6.00
65360;PMS5003;51958;55.018;73.536;2022-08-04T18:25:37;13.00;13.00;7.00
65360;PMS5003;51958;55.018;73.536;2022-08-04T18:28:04;13.00;13.00;5.00
65360;PMS5003;51958;55.018;73.536;2022-08-04T18:30:30;13.00;12.75;6.00
65360;PMS5003;51958;55.018;73.536;2022-08-04T18:33:02;11.75;11.25;6.00
65360;PMS5003;51958;55.018;73.536;2022-08-04T18:35:37;14.00;11.00;5.00
65360;PMS5003;51958;55.018;73.536;2022-08-04T18:38:03;16.33;12.67;5.00
65360;PMS5003;51958;55.018;73.536;2022-08-04T18:40:30;17.50;13.75;5.00
65360;PMS5003;51958;55.018;73.536;2022-08-04T18:42:56;15.00;13.33;6.00
65360;PMS5003;51958;55.018;73.536;2022-08-04T18:45:27;14.75;14.75;5.50
65360;PMS5003;51958;55.018;73.536;2022-08-04T18:48:03;16.25;16.00;7.00
65360;PMS5003;51958;55.018;73.536;2022-08-04T18:50:29;18.00;16.00;5.00
65360;PMS5003;51958;55.018;73.536;2022-08-04T18:52:55;18.00;17.00;7.00
65360;PMS5003;51958;55.018;73.536;2022-08-04T18:55:22;16.75;15.75;6.50
65360;PMS5003;51958;55.018;73.536;2022-08-04T18:57:47;18.00;15.00;7.00
65360;PMS5003;51958;55.018;73.536;2022-08-04T19:00:13;19.33;16.00;8.00
65360;PMS5003;51958;55.018;73.536;2022-08-04T19:02:39;23.00;19.00;9.00
65360;PMS5003;51958;55.018;73.536;2022-08-04T19:05:05;21.00;17.00;7.00
65360;PMS5003;51958;55.018;73.536;2022-08-04T19:07:30;19.00;17.00;7.00
65360;PMS5003;51958;55.018;73.536;2022-08-04T19:09:56;20.25;17.00;8.00
65360;PMS5003;51958;55.018;73.536;2022-08-04T19:12:23;20.00;16.25;8.00
65360;PMS5003;51958;55.018;73.536;2022-08-04T19:14:48;19.00;16.00;7.00
65360;PMS5003;51958;55.018;73.536;2022-08-04T19:17:14;17.00;15.00;7.00
65360;PMS5003;51958;55.018;73.536;2022-08-04T19:19:40;17.00;15.33;8.00
65360;PMS5003;51958;55.018;73.536;2022-08-04T19:22:05;17.00;15.00;7.00
65360;PMS5003;51958;55.018;73.536;2022-08-04T19:24:38;20.00;17.00;8.00
65360;PMS5003;51958;55.018;73.536;2022-08-04T19:27:04;21.00;17.00;8.00
65360;PMS5003;51958;55.018;73.536;2022-08-04T19:29:31;19.00;17.00;8.00
65360;PMS5003;51958;55.018;73.536;2022-08-04T19:31:57;17.00;14.00;4.75
65360;PMS5003;51958;55.018;73.536;2022-08-04T19:34:28;17.00;15.00;6.00
65360;PMS5003;51958;55.018;73.536;2022-08-04T19:36:54;17.33;14.00;6.00
65360;PMS5003;51958;55.018;73.536;2022-08-04T19:39:19;16.33;13.00;5.00
65360;PMS5003;51958;55.018;73.536;2022-08-04T19:41:45;13.00;8.00;4.00
65360;PMS5003;51958;55.018;73.536;2022-08-04T19:44:12;12.75;10.00;5.00
65360;PMS5003;51958;55.018;73.536;2022-08-04T19:46:43;16.00;14.50;7.00
65360;PMS5003;51958;55.018;73.536;2022-08-04T19:49:11;19.50;17.50;7.00